Kapuskasing Airport
CYYU : now visible

Airfield :











YOU CAN JOIN US ON...

 
LOGIN :

Register | Disclaimer

   EN    FR    IT 

 









Legend :    VFR   Marginal VFR   IFR   Intensive IFR   Very Intensive IFR
Visi :
Ceiling :
>= 8 km
>= 3000ft
5 to 8 km
1000 to 3000 ft
1500m to 5 km
500 to 1000 ft
800 to 1500m
200 to 500 ft
< 800m
< 200 ft
Symbols :   Thunderstorms  Fog  Heavy snow  Heavy precipitations  Wind > 20 kt






- Airport Elevation : 743 ft
- IATA code : YYU


CYYU - Kapuskasing

CURRENT METAR :
  • 281200Z 31009KT 6SM -SN OVC010 M13/M14 A3004 RMK SC8 FROIN SLP192

EXPIRED METARs :
  • 281100Z 34008KT 6SM -SN OVC010 M13/M14 A3002 RMK SC8 SLP186
  • 281000Z 33008KT 5SM -SN BKN009 OVC010 M12/M14 A3001 RMK SC6SC2 SLP181

TAF TAF CYYU
Valid from the 28 at 08:00 until the 28 at 20:00 UTC


280741Z 2808/2820 34008KT 2SM -FZDZ BR OVC004
TEMPO 2808/2812 6SM -SN OVC010
FM281200 35008KT 2SM -FZDZ BR OVC007
TEMPO 2812/2814 6SM -SN OVC015
FM281400 34008KT P6SM BKN015
BECMG 2817/2819 SCT015 RMK NXT FCST BY 281400Z



MET'MAP, your aeronautical weather chart ! - Copyright ORBIFLY December 2007 - Disclaimer

ORBIFLY MET'MAP TEAM :

Programming & Development : Alexandra Zaïnal
Concept & original design : Baudouin d'Aumeries
Assistance for programming : Marc-Olivier Méhu
Technical & hardware support : Manuel Goepfert

Contact : metmap@orbifly.com




SOURCES & CREDITS :

   NOAA       Earth
Advisory